sensor_id;sensor_type;location;lat;lon;timestamp;P1;durP1;ratioP1;P2;durP2;ratioP2
83769;SDS011;73763;48.936;9.300;2023-12-14T00:02:15;13.63;;;12.43;;
83769;SDS011;73763;48.936;9.300;2023-12-14T00:04:40;8.30;;;5.93;;
83769;SDS011;73763;48.936;9.300;2023-12-14T00:07:06;7.45;;;5.43;;
83769;SDS011;73763;48.936;9.300;2023-12-14T00:09:32;7.17;;;5.20;;
83769;SDS011;73763;48.936;9.300;2023-12-14T00:11:57;6.47;;;5.43;;
83769;SDS011;73763;48.936;9.300;2023-12-14T00:14:23;6.03;;;5.40;;
83769;SDS011;73763;48.936;9.300;2023-12-14T00:16:51;6.40;;;5.68;;
83769;SDS011;73763;48.936;9.300;2023-12-14T00:19:17;6.17;;;4.87;;
83769;SDS011;73763;48.936;9.300;2023-12-14T00:21:42;6.57;;;5.45;;
83769;SDS011;73763;48.936;9.300;2023-12-14T00:24:08;6.77;;;4.83;;
83769;SDS011;73763;48.936;9.300;2023-12-14T00:26:33;6.63;;;4.03;;
83769;SDS011;73763;48.936;9.300;2023-12-14T00:28:59;7.47;;;5.30;;
83769;SDS011;73763;48.936;9.300;2023-12-14T00:31:24;5.70;;;4.53;;
83769;SDS011;73763;48.936;9.300;2023-12-14T00:33:50;5.20;;;4.60;;
83769;SDS011;73763;48.936;9.300;2023-12-14T00:36:18;7.03;;;5.70;;
83769;SDS011;73763;48.936;9.300;2023-12-14T00:38:44;7.40;;;5.20;;
83769;SDS011;73763;48.936;9.300;2023-12-14T00:41:10;7.65;;;5.57;;
83769;SDS011;73763;48.936;9.300;2023-12-14T00:43:35;7.03;;;5.30;;
83769;SDS011;73763;48.936;9.300;2023-12-14T00:46:02;5.90;;;4.55;;
83769;SDS011;73763;48.936;9.300;2023-12-14T00:48:28;5.50;;;4.93;;
83769;SDS011;73763;48.936;9.300;2023-12-14T00:50:53;5.60;;;4.63;;
83769;SDS011;73763;48.936;9.300;2023-12-14T00:53:19;7.73;;;4.80;;
83769;SDS011;73763;48.936;9.300;2023-12-14T00:55:44;7.00;;;5.40;;
83769;SDS011;73763;48.936;9.300;2023-12-14T00:58:10;6.97;;;4.63;;
83769;SDS011;73763;48.936;9.300;2023-12-14T01:00:35;5.53;;;4.93;;
83769;SDS011;73763;48.936;9.300;2023-12-14T01:03:01;5.87;;;4.53;;
83769;SDS011;73763;48.936;9.300;2023-12-14T01:05:27;6.43;;;4.68;;
83769;SDS011;73763;48.936;9.300;2023-12-14T01:07:52;6.68;;;4.93;;
83769;SDS011;73763;48.936;9.300;2023-12-14T01:10:18;7.20;;;5.00;;
83769;SDS011;73763;48.936;9.300;2023-12-14T01:12:43;7.55;;;5.63;;
83769;SDS011;73763;48.936;9.300;2023-12-14T01:15:09;5.67;;;4.70;;
83769;SDS011;73763;48.936;9.300;2023-12-14T01:17:35;7.47;;;4.75;;
83769;SDS011;73763;48.936;9.300;2023-12-14T01:20:00;7.20;;;5.30;;
83769;SDS011;73763;48.936;9.300;2023-12-14T01:22:31;9.38;;;5.45;;
83769;SDS011;73763;48.936;9.300;2023-12-14T01:24:56;7.40;;;5.60;;
83769;SDS011;73763;48.936;9.300;2023-12-14T01:27:22;9.03;;;6.00;;
83769;SDS011;73763;48.936;9.300;2023-12-14T01:29:47;6.30;;;4.57;;
83769;SDS011;73763;48.936;9.300;2023-12-14T01:32:13;5.85;;;5.13;;
83769;SDS011;73763;48.936;9.300;2023-12-14T01:34:39;8.10;;;5.80;;
83769;SDS011;73763;48.936;9.300;2023-12-14T01:37:05;6.50;;;5.07;;
83769;SDS011;73763;48.936;9.300;2023-12-14T01:39:30;8.35;;;5.13;;
83769;SDS011;73763;48.936;9.300;2023-12-14T01:41:56;6.82;;;4.97;;
83769;SDS011;73763;48.936;9.300;2023-12-14T01:44:21;7.23;;;5.70;;
83769;SDS011;73763;48.936;9.300;2023-12-14T01:46:47;7.07;;;4.90;;
83769;SDS011;73763;48.936;9.300;2023-12-14T01:49:12;7.47;;;5.27;;
83769;SDS011;73763;48.936;9.300;2023-12-14T01:51:38;6.95;;;4.85;;
83769;SDS011;73763;48.936;9.300;2023-12-14T01:54:04;7.67;;;4.80;;
83769;SDS011;73763;48.936;9.300;2023-12-14T01:56:29;6.38;;;4.68;;
83769;SDS011;73763;48.936;9.300;2023-12-14T01:58:55;6.00;;;4.87;;
83769;SDS011;73763;48.936;9.300;2023-12-14T02:01:22;7.50;;;4.60;;
83769;SDS011;73763;48.936;9.300;2023-12-14T02:03:58;6.30;;;4.65;;
83769;SDS011;73763;48.936;9.300;2023-12-14T02:06:24;5.80;;;4.03;;
83769;SDS011;73763;48.936;9.300;2023-12-14T02:08:49;4.77;;;3.97;;
83769;SDS011;73763;48.936;9.300;2023-12-14T02:11:15;5.85;;;4.70;;
83769;SDS011;73763;48.936;9.300;2023-12-14T02:13:40;7.53;;;5.07;;
83769;SDS011;73763;48.936;9.300;2023-12-14T02:16:06;5.82;;;4.70;;
83769;SDS011;73763;48.936;9.300;2023-12-14T02:18:31;5.67;;;5.00;;
83769;SDS011;73763;48.936;9.300;2023-12-14T02:20:57;6.25;;;4.80;;
83769;SDS011;73763;48.936;9.300;2023-12-14T02:23:22;5.87;;;4.77;;
83769;SDS011;73763;48.936;9.300;2023-12-14T02:25:48;7.60;;;5.10;;
83769;SDS011;73763;48.936;9.300;2023-12-14T02:28:13;6.43;;;4.43;;
83769;SDS011;73763;48.936;9.300;2023-12-14T02:30:39;7.53;;;5.63;;
83769;SDS011;73763;48.936;9.300;2023-12-14T02:33:04;5.97;;;4.67;;
83769;SDS011;73763;48.936;9.300;2023-12-14T02:35:30;7.23;;;5.00;;
83769;SDS011;73763;48.936;9.300;2023-12-14T02:37:55;6.70;;;5.30;;
83769;SDS011;73763;48.936;9.300;2023-12-14T02:40:21;6.27;;;5.40;;
83769;SDS011;73763;48.936;9.300;2023-12-14T02:42:46;5.90;;;5.30;;
83769;SDS011;73763;48.936;9.300;2023-12-14T02:45:12;6.57;;;5.47;;
83769;SDS011;73763;48.936;9.300;2023-12-14T02:47:37;8.70;;;6.15;;
83769;SDS011;73763;48.936;9.300;2023-12-14T02:50:03;9.03;;;6.67;;
83769;SDS011;73763;48.936;9.300;2023-12-14T02:52:29;7.95;;;6.50;;
83769;SDS011;73763;48.936;9.300;2023-12-14T02:54:55;9.93;;;5.82;;
83769;SDS011;73763;48.936;9.300;2023-12-14T02:57:20;7.23;;;5.80;;
83769;SDS011;73763;48.936;9.300;2023-12-14T02:59:46;8.23;;;5.70;;
83769;SDS011;73763;48.936;9.300;2023-12-14T03:02:11;7.40;;;5.70;;
83769;SDS011;73763;48.936;9.300;2023-12-14T03:04:37;7.43;;;5.47;;
83769;SDS011;73763;48.936;9.300;2023-12-14T03:07:03;6.95;;;5.45;;
83769;SDS011;73763;48.936;9.300;2023-12-14T03:09:29;6.53;;;5.77;;
83769;SDS011;73763;48.936;9.300;2023-12-14T03:11:54;9.27;;;6.00;;
83769;SDS011;73763;48.936;9.300;2023-12-14T03:14:20;9.13;;;6.13;;
83769;SDS011;73763;48.936;9.300;2023-12-14T03:16:46;7.33;;;5.70;;
83769;SDS011;73763;48.936;9.300;2023-12-14T03:19:11;6.00;;;5.20;;
83769;SDS011;73763;48.936;9.300;2023-12-14T03:21:37;9.10;;;4.90;;
83769;SDS011;73763;48.936;9.300;2023-12-14T03:24:02;7.90;;;5.20;;
83769;SDS011;73763;48.936;9.300;2023-12-14T03:26:28;9.60;;;5.17;;
83769;SDS011;73763;48.936;9.300;2023-12-14T03:28:53;7.63;;;5.75;;
83769;SDS011;73763;48.936;9.300;2023-12-14T03:31:19;9.47;;;6.47;;
83769;SDS011;73763;48.936;9.300;2023-12-14T03:33:45;5.93;;;5.32;;
83769;SDS011;73763;48.936;9.300;2023-12-14T03:36:10;7.90;;;5.50;;
83769;SDS011;73763;48.936;9.300;2023-12-14T03:38:36;7.53;;;5.70;;
83769;SDS011;73763;48.936;9.300;2023-12-14T03:41:01;8.40;;;6.07;;
83769;SDS011;73763;48.936;9.300;2023-12-14T03:43:27;9.25;;;7.38;;
83769;SDS011;73763;48.936;9.300;2023-12-14T03:45:53;11.03;;;7.20;;
83769;SDS011;73763;48.936;9.300;2023-12-14T03:48:18;8.00;;;6.25;;
83769;SDS011;73763;48.936;9.300;2023-12-14T03:50:44;9.17;;;6.90;;
83769;SDS011;73763;48.936;9.300;2023-12-14T03:53:09;6.93;;;6.25;;
83769;SDS011;73763;48.936;9.300;2023-12-14T03:55:35;9.53;;;5.90;;
83769;SDS011;73763;48.936;9.300;2023-12-14T03:58:00;7.85;;;6.32;;
83769;SDS011;73763;48.936;9.300;2023-12-14T04:00:26;7.57;;;6.77;;
83769;SDS011;73763;48.936;9.300;2023-12-14T04:02:52;7.38;;;6.45;;
83769;SDS011;73763;48.936;9.300;2023-12-14T04:05:17;9.75;;;6.65;;
83769;SDS011;73763;48.936;9.300;2023-12-14T04:07:43;8.90;;;6.97;;
83769;SDS011;73763;48.936;9.300;2023-12-14T04:10:09;10.20;;;6.72;;
83769;SDS011;73763;48.936;9.300;2023-12-14T04:12:35;8.75;;;7.10;;
83769;SDS011;73763;48.936;9.300;2023-12-14T04:15:04;11.27;;;8.27;;
83769;SDS011;73763;48.936;9.300;2023-12-14T04:17:32;9.75;;;7.75;;
83769;SDS011;73763;48.936;9.300;2023-12-14T04:19:57;11.55;;;8.63;;
83769;SDS011;73763;48.936;9.300;2023-12-14T04:22:23;12.32;;;8.50;;
83769;SDS011;73763;48.936;9.300;2023-12-14T04:24:49;8.30;;;7.30;;
83769;SDS011;73763;48.936;9.300;2023-12-14T04:27:16;13.52;;;9.10;;
83769;SDS011;73763;48.936;9.300;2023-12-14T04:29:41;13.63;;;8.95;;
83769;SDS011;73763;48.936;9.300;2023-12-14T04:32:07;10.83;;;8.00;;
83769;SDS011;73763;48.936;9.300;2023-12-14T04:34:32;9.73;;;8.52;;
83769;SDS011;73763;48.936;9.300;2023-12-14T04:36:58;11.93;;;8.83;;
83769;SDS011;73763;48.936;9.300;2023-12-14T04:39:24;10.80;;;8.93;;
83769;SDS011;73763;48.936;9.300;2023-12-14T04:41:50;11.65;;;9.68;;
83769;SDS011;73763;48.936;9.300;2023-12-14T04:44:16;11.47;;;9.30;;
83769;SDS011;73763;48.936;9.300;2023-12-14T04:46:42;10.35;;;9.05;;
83769;SDS011;73763;48.936;9.300;2023-12-14T04:49:07;12.23;;;10.20;;
83769;SDS011;73763;48.936;9.300;2023-12-14T04:51:33;14.00;;;10.13;;
83769;SDS011;73763;48.936;9.300;2023-12-14T04:53:58;14.70;;;11.00;;
83769;SDS011;73763;48.936;9.300;2023-12-14T04:56:24;14.82;;;11.95;;
83769;SDS011;73763;48.936;9.300;2023-12-14T04:58:49;18.27;;;12.63;;
83769;SDS011;73763;48.936;9.300;2023-12-14T05:01:15;14.25;;;11.00;;
83769;SDS011;73763;48.936;9.300;2023-12-14T05:03:41;13.83;;;11.13;;
83769;SDS011;73763;48.936;9.300;2023-12-14T05:06:06;13.30;;;10.50;;
83769;SDS011;73763;48.936;9.300;2023-12-14T05:08:32;11.87;;;10.13;;
83769;SDS011;73763;48.936;9.300;2023-12-14T05:10:57;14.32;;;10.50;;
83769;SDS011;73763;48.936;9.300;2023-12-14T05:13:23;13.90;;;11.67;;
83769;SDS011;73763;48.936;9.300;2023-12-14T05:15:48;13.83;;;11.73;;
83769;SDS011;73763;48.936;9.300;2023-12-14T05:18:14;14.67;;;11.77;;
83769;SDS011;73763;48.936;9.300;2023-12-14T05:20:39;14.30;;;11.98;;
83769;SDS011;73763;48.936;9.300;2023-12-14T05:23:05;16.83;;;12.60;;
83769;SDS011;73763;48.936;9.300;2023-12-14T05:25:30;16.40;;;13.25;;
83769;SDS011;73763;48.936;9.300;2023-12-14T05:27:56;15.33;;;12.27;;
83769;SDS011;73763;48.936;9.300;2023-12-14T05:30:21;14.00;;;11.95;;
83769;SDS011;73763;48.936;9.300;2023-12-14T05:32:47;16.33;;;13.07;;
83769;SDS011;73763;48.936;9.300;2023-12-14T05:35:12;17.63;;;13.37;;
83769;SDS011;73763;48.936;9.300;2023-12-14T05:37:38;13.38;;;11.98;;
83769;SDS011;73763;48.936;9.300;2023-12-14T05:40:04;17.33;;;13.48;;
83769;SDS011;73763;48.936;9.300;2023-12-14T05:42:30;14.90;;;11.85;;
83769;SDS011;73763;48.936;9.300;2023-12-14T05:44:56;13.87;;;11.47;;
83769;SDS011;73763;48.936;9.300;2023-12-14T05:47:21;12.27;;;10.98;;
83769;SDS011;73763;48.936;9.300;2023-12-14T05:49:47;17.13;;;13.67;;
83769;SDS011;73763;48.936;9.300;2023-12-14T05:52:12;15.73;;;12.52;;
83769;SDS011;73763;48.936;9.300;2023-12-14T05:54:38;19.23;;;14.47;;
83769;SDS011;73763;48.936;9.300;2023-12-14T05:57:04;17.73;;;13.65;;
83769;SDS011;73763;48.936;9.300;2023-12-14T05:59:29;16.13;;;13.43;;
83769;SDS011;73763;48.936;9.300;2023-12-14T06:01:58;23.37;;;15.27;;
83769;SDS011;73763;48.936;9.300;2023-12-14T06:04:25;17.63;;;14.00;;
83769;SDS011;73763;48.936;9.300;2023-12-14T06:06:51;15.95;;;13.27;;
83769;SDS011;73763;48.936;9.300;2023-12-14T06:09:17;18.60;;;14.50;;
83769;SDS011;73763;48.936;9.300;2023-12-14T06:11:43;17.45;;;13.73;;
83769;SDS011;73763;48.936;9.300;2023-12-14T06:14:09;25.17;;;14.85;;
83769;SDS011;73763;48.936;9.300;2023-12-14T06:16:35;24.40;;;16.58;;
83769;SDS011;73763;48.936;9.300;2023-12-14T06:19:00;25.03;;;15.87;;
83769;SDS011;73763;48.936;9.300;2023-12-14T06:21:26;23.33;;;16.57;;
83769;SDS011;73763;48.936;9.300;2023-12-14T06:23:51;20.00;;;15.70;;
83769;SDS011;73763;48.936;9.300;2023-12-14T06:26:17;19.75;;;15.98;;
83769;SDS011;73763;48.936;9.300;2023-12-14T06:28:42;17.00;;;13.70;;
83769;SDS011;73763;48.936;9.300;2023-12-14T06:31:12;19.98;;;14.57;;
83769;SDS011;73763;48.936;9.300;2023-12-14T06:33:38;19.27;;;15.30;;
83769;SDS011;73763;48.936;9.300;2023-12-14T06:36:03;27.13;;;20.20;;
83769;SDS011;73763;48.936;9.300;2023-12-14T06:38:29;23.97;;;16.77;;
83769;SDS011;73763;48.936;9.300;2023-12-14T06:40:55;23.23;;;17.40;;
83769;SDS011;73763;48.936;9.300;2023-12-14T06:43:20;19.90;;;15.33;;
83769;SDS011;73763;48.936;9.300;2023-12-14T06:45:46;22.23;;;14.80;;
83769;SDS011;73763;48.936;9.300;2023-12-14T06:48:11;26.03;;;17.67;;
83769;SDS011;73763;48.936;9.300;2023-12-14T06:50:37;31.17;;;19.50;;
83769;SDS011;73763;48.936;9.300;2023-12-14T06:53:02;30.90;;;18.10;;
83769;SDS011;73763;48.936;9.300;2023-12-14T06:55:28;25.17;;;18.30;;
83769;SDS011;73763;48.936;9.300;2023-12-14T06:57:53;25.70;;;16.57;;
83769;SDS011;73763;48.936;9.300;2023-12-14T07:00:19;22.87;;;16.23;;
83769;SDS011;73763;48.936;9.300;2023-12-14T07:02:44;29.07;;;18.63;;
83769;SDS011;73763;48.936;9.300;2023-12-14T07:05:10;28.60;;;19.27;;
83769;SDS011;73763;48.936;9.300;2023-12-14T07:07:35;29.33;;;19.33;;
83769;SDS011;73763;48.936;9.300;2023-12-14T07:10:01;24.43;;;18.77;;
83769;SDS011;73763;48.936;9.300;2023-12-14T07:12:26;21.08;;;16.30;;
83769;SDS011;73763;48.936;9.300;2023-12-14T07:14:52;21.10;;;16.40;;
83769;SDS011;73763;48.936;9.300;2023-12-14T07:17:17;30.83;;;19.93;;
83769;SDS011;73763;48.936;9.300;2023-12-14T07:19:43;26.37;;;19.97;;
83769;SDS011;73763;48.936;9.300;2023-12-14T07:22:08;22.77;;;17.52;;
83769;SDS011;73763;48.936;9.300;2023-12-14T07:24:34;24.20;;;18.77;;
83769;SDS011;73763;48.936;9.300;2023-12-14T07:27:00;27.25;;;19.35;;
83769;SDS011;73763;48.936;9.300;2023-12-14T07:29:25;29.13;;;19.43;;
83769;SDS011;73763;48.936;9.300;2023-12-14T07:31:51;31.25;;;20.40;;
83769;SDS011;73763;48.936;9.300;2023-12-14T07:34:16;29.40;;;19.60;;
83769;SDS011;73763;48.936;9.300;2023-12-14T07:36:42;34.08;;;20.95;;
83769;SDS011;73763;48.936;9.300;2023-12-14T07:39:07;31.83;;;21.33;;
83769;SDS011;73763;48.936;9.300;2023-12-14T07:41:33;34.67;;;21.75;;
83769;SDS011;73763;48.936;9.300;2023-12-14T07:43:58;37.97;;;22.50;;
83769;SDS011;73763;48.936;9.300;2023-12-14T07:46:24;29.97;;;21.07;;
83769;SDS011;73763;48.936;9.300;2023-12-14T07:48:49;25.35;;;18.30;;
83769;SDS011;73763;48.936;9.300;2023-12-14T07:51:15;28.43;;;18.30;;
83769;SDS011;73763;48.936;9.300;2023-12-14T07:53:40;30.55;;;20.13;;
83769;SDS011;73763;48.936;9.300;2023-12-14T07:56:06;29.90;;;19.90;;
83769;SDS011;73763;48.936;9.300;2023-12-14T07:58:32;28.38;;;19.85;;
83769;SDS011;73763;48.936;9.300;2023-12-14T08:00:57;24.87;;;17.07;;
83769;SDS011;73763;48.936;9.300;2023-12-14T08:03:23;24.13;;;16.98;;
83769;SDS011;73763;48.936;9.300;2023-12-14T08:05:49;25.03;;;18.63;;
83769;SDS011;73763;48.936;9.300;2023-12-14T08:08:14;20.63;;;16.13;;
83769;SDS011;73763;48.936;9.300;2023-12-14T08:10:40;21.23;;;16.73;;
83769;SDS011;73763;48.936;9.300;2023-12-14T08:13:05;21.38;;;17.33;;
83769;SDS011;73763;48.936;9.300;2023-12-14T08:15:31;21.60;;;17.80;;
83769;SDS011;73763;48.936;9.300;2023-12-14T08:17:56;21.27;;;17.50;;
83769;SDS011;73763;48.936;9.300;2023-12-14T08:20:22;22.97;;;17.60;;
83769;SDS011;73763;48.936;9.300;2023-12-14T08:22:47;27.50;;;20.17;;
83769;SDS011;73763;48.936;9.300;2023-12-14T08:25:13;24.55;;;18.63;;
83769;SDS011;73763;48.936;9.300;2023-12-14T08:27:39;26.05;;;18.30;;
83769;SDS011;73763;48.936;9.300;2023-12-14T08:30:05;23.42;;;18.33;;
83769;SDS011;73763;48.936;9.300;2023-12-14T08:32:31;25.27;;;18.73;;
83769;SDS011;73763;48.936;9.300;2023-12-14T08:34:57;25.60;;;18.27;;
83769;SDS011;73763;48.936;9.300;2023-12-14T08:37:22;21.30;;;17.27;;
83769;SDS011;73763;48.936;9.300;2023-12-14T08:39:48;20.53;;;16.53;;
83769;SDS011;73763;48.936;9.300;2023-12-14T08:42:13;19.20;;;16.27;;
83769;SDS011;73763;48.936;9.300;2023-12-14T08:44:39;17.60;;;15.70;;
83769;SDS011;73763;48.936;9.300;2023-12-14T08:47:05;20.42;;;16.83;;
83769;SDS011;73763;48.936;9.300;2023-12-14T08:49:32;25.23;;;18.58;;
83769;SDS011;73763;48.936;9.300;2023-12-14T08:51:57;26.27;;;18.92;;
83769;SDS011;73763;48.936;9.300;2023-12-14T08:54:23;23.83;;;18.65;;
83769;SDS011;73763;48.936;9.300;2023-12-14T08:56:48;27.07;;;19.47;;
83769;SDS011;73763;48.936;9.300;2023-12-14T08:59:13;23.03;;;19.20;;
83769;SDS011;73763;48.936;9.300;2023-12-14T09:01:39;24.75;;;19.85;;
83769;SDS011;73763;48.936;9.300;2023-12-14T09:04:04;24.47;;;19.73;;
83769;SDS011;73763;48.936;9.300;2023-12-14T09:06:30;27.45;;;20.60;;
83769;SDS011;73763;48.936;9.300;2023-12-14T09:08:55;26.03;;;19.93;;
83769;SDS011;73763;48.936;9.300;2023-12-14T09:11:21;28.20;;;22.23;;
83769;SDS011;73763;48.936;9.300;2023-12-14T09:13:46;26.27;;;20.75;;
83769;SDS011;73763;48.936;9.300;2023-12-14T09:16:13;24.53;;;19.80;;
83769;SDS011;73763;48.936;9.300;2023-12-14T09:18:39;24.55;;;19.77;;
83769;SDS011;73763;48.936;9.300;2023-12-14T09:21:04;27.33;;;21.27;;
83769;SDS011;73763;48.936;9.300;2023-12-14T09:23:30;26.95;;;20.88;;
83769;SDS011;73763;48.936;9.300;2023-12-14T09:25:55;27.53;;;20.33;;
83769;SDS011;73763;48.936;9.300;2023-12-14T09:28:21;26.00;;;20.37;;
83769;SDS011;73763;48.936;9.300;2023-12-14T09:30:49;24.00;;;19.05;;
83769;SDS011;73763;48.936;9.300;2023-12-14T09:33:17;28.38;;;20.20;;
83769;SDS011;73763;48.936;9.300;2023-12-14T09:35:42;25.98;;;20.63;;
83769;SDS011;73763;48.936;9.300;2023-12-14T09:38:08;27.63;;;22.00;;
83769;SDS011;73763;48.936;9.300;2023-12-14T09:40:34;31.23;;;22.35;;
83769;SDS011;73763;48.936;9.300;2023-12-14T09:43:00;26.45;;;19.95;;
83769;SDS011;73763;48.936;9.300;2023-12-14T09:45:29;24.63;;;19.87;;
83769;SDS011;73763;48.936;9.300;2023-12-14T09:47:58;27.70;;;19.77;;
83769;SDS011;73763;48.936;9.300;2023-12-14T09:50:25;22.23;;;19.25;;
83769;SDS011;73763;48.936;9.300;2023-12-14T09:52:51;22.13;;;17.43;;
83769;SDS011;73763;48.936;9.300;2023-12-14T09:55:16;20.40;;;17.23;;
83769;SDS011;73763;48.936;9.300;2023-12-14T09:57:42;20.30;;;16.07;;
83769;SDS011;73763;48.936;9.300;2023-12-14T10:00:08;19.75;;;16.05;;
83769;SDS011;73763;48.936;9.300;2023-12-14T10:02:34;21.13;;;15.57;;
83769;SDS011;73763;48.936;9.300;2023-12-14T10:04:59;20.53;;;17.33;;
83769;SDS011;73763;48.936;9.300;2023-12-14T10:07:25;21.52;;;17.35;;
83769;SDS011;73763;48.936;9.300;2023-12-14T10:09:50;21.93;;;16.40;;
83769;SDS011;73763;48.936;9.300;2023-12-14T10:12:16;21.73;;;17.57;;
83769;SDS011;73763;48.936;9.300;2023-12-14T10:14:41;20.33;;;17.48;;
83769;SDS011;73763;48.936;9.300;2023-12-14T10:17:22;20.03;;;16.53;;
83769;SDS011;73763;48.936;9.300;2023-12-14T10:19:47;20.60;;;17.08;;
83769;SDS011;73763;48.936;9.300;2023-12-14T10:22:14;24.23;;;17.13;;
83769;SDS011;73763;48.936;9.300;2023-12-14T10:24:43;25.27;;;18.60;;
83769;SDS011;73763;48.936;9.300;2023-12-14T10:27:11;24.98;;;18.90;;
83769;SDS011;73763;48.936;9.300;2023-12-14T10:29:37;21.03;;;15.37;;
83769;SDS011;73763;48.936;9.300;2023-12-14T10:32:03;17.98;;;13.93;;
83769;SDS011;73763;48.936;9.300;2023-12-14T10:34:29;16.83;;;13.65;;
83769;SDS011;73763;48.936;9.300;2023-12-14T10:36:54;19.50;;;13.90;;
83769;SDS011;73763;48.936;9.300;2023-12-14T10:39:20;28.35;;;18.60;;
83769;SDS011;73763;48.936;9.300;2023-12-14T10:41:46;20.63;;;14.73;;
83769;SDS011;73763;48.936;9.300;2023-12-14T10:44:12;18.53;;;14.27;;
83769;SDS011;73763;48.936;9.300;2023-12-14T10:46:38;19.25;;;14.95;;
83769;SDS011;73763;48.936;9.300;2023-12-14T10:49:04;19.40;;;14.35;;
83769;SDS011;73763;48.936;9.300;2023-12-14T10:51:30;17.07;;;12.50;;
83769;SDS011;73763;48.936;9.300;2023-12-14T10:53:57;15.45;;;11.88;;
83769;SDS011;73763;48.936;9.300;2023-12-14T10:56:23;15.50;;;12.47;;
83769;SDS011;73763;48.936;9.300;2023-12-14T10:58:53;15.35;;;12.52;;
83769;SDS011;73763;48.936;9.300;2023-12-14T11:01:20;20.08;;;12.80;;
83769;SDS011;73763;48.936;9.300;2023-12-14T11:03:48;20.02;;;12.85;;
83769;SDS011;73763;48.936;9.300;2023-12-14T11:06:20;18.03;;;13.50;;
83769;SDS011;73763;48.936;9.300;2023-12-14T11:08:50;18.52;;;12.77;;
83769;SDS011;73763;48.936;9.300;2023-12-14T11:11:16;15.30;;;12.55;;
83769;SDS011;73763;48.936;9.300;2023-12-14T11:13:42;18.25;;;13.68;;
83769;SDS011;73763;48.936;9.300;2023-12-14T11:16:08;17.20;;;12.70;;
83769;SDS011;73763;48.936;9.300;2023-12-14T11:18:34;16.60;;;12.80;;
83769;SDS011;73763;48.936;9.300;2023-12-14T11:21:00;15.47;;;11.90;;
83769;SDS011;73763;48.936;9.300;2023-12-14T11:25:54;15.70;;;10.05;;
83769;SDS011;73763;48.936;9.300;2023-12-14T11:28:22;15.93;;;10.32;;
83769;SDS011;73763;48.936;9.300;2023-12-14T11:30:48;15.32;;;10.65;;
83769;SDS011;73763;48.936;9.300;2023-12-14T11:33:14;18.92;;;11.10;;
83769;SDS011;73763;48.936;9.300;2023-12-14T11:35:41;14.23;;;10.82;;
83769;SDS011;73763;48.936;9.300;2023-12-14T11:38:07;14.30;;;10.90;;
83769;SDS011;73763;48.936;9.300;2023-12-14T11:40:32;15.30;;;10.27;;
83769;SDS011;73763;48.936;9.300;2023-12-14T11:42:58;13.80;;;11.07;;
83769;SDS011;73763;48.936;9.300;2023-12-14T11:45:24;15.45;;;13.05;;
83769;SDS011;73763;48.936;9.300;2023-12-14T11:47:49;14.10;;;10.93;;
83769;SDS011;73763;48.936;9.300;2023-12-14T11:50:15;15.77;;;12.77;;
83769;SDS011;73763;48.936;9.300;2023-12-14T11:52:40;16.63;;;12.87;;
83769;SDS011;73763;48.936;9.300;2023-12-14T11:55:06;16.33;;;11.90;;
83769;SDS011;73763;48.936;9.300;2023-12-14T11:57:32;18.17;;;12.90;;
83769;SDS011;73763;48.936;9.300;2023-12-14T11:59:59;17.27;;;12.88;;
83769;SDS011;73763;48.936;9.300;2023-12-14T12:02:24;16.77;;;12.73;;
83769;SDS011;73763;48.936;9.300;2023-12-14T12:04:50;19.27;;;12.73;;
83769;SDS011;73763;48.936;9.300;2023-12-14T12:07:15;19.47;;;14.17;;
83769;SDS011;73763;48.936;9.300;2023-12-14T12:09:42;16.98;;;13.00;;
83769;SDS011;73763;48.936;9.300;2023-12-14T12:12:09;17.17;;;14.03;;
83769;SDS011;73763;48.936;9.300;2023-12-14T12:14:35;18.60;;;14.02;;
83769;SDS011;73763;48.936;9.300;2023-12-14T12:17:02;19.55;;;15.02;;
83769;SDS011;73763;48.936;9.300;2023-12-14T12:19:28;16.90;;;13.38;;
83769;SDS011;73763;48.936;9.300;2023-12-14T12:21:54;15.63;;;11.07;;
83769;SDS011;73763;48.936;9.300;2023-12-14T12:24:20;16.67;;;11.30;;
83769;SDS011;73763;48.936;9.300;2023-12-14T12:26:45;15.75;;;11.57;;
83769;SDS011;73763;48.936;9.300;2023-12-14T12:29:11;16.27;;;10.70;;
83769;SDS011;73763;48.936;9.300;2023-12-14T12:31:36;16.17;;;11.13;;
83769;SDS011;73763;48.936;9.300;2023-12-14T12:34:02;14.43;;;10.97;;
83769;SDS011;73763;48.936;9.300;2023-12-14T12:36:29;13.18;;;9.98;;
83769;SDS011;73763;48.936;9.300;2023-12-14T12:38:54;13.67;;;10.93;;
83769;SDS011;73763;48.936;9.300;2023-12-14T12:41:20;15.88;;;10.45;;
83769;SDS011;73763;48.936;9.300;2023-12-14T12:43:45;10.03;;;7.43;;
83769;SDS011;73763;48.936;9.300;2023-12-14T12:46:11;11.63;;;7.90;;
83769;SDS011;73763;48.936;9.300;2023-12-14T12:48:37;11.50;;;7.97;;
83769;SDS011;73763;48.936;9.300;2023-12-14T12:51:02;9.43;;;7.47;;
83769;SDS011;73763;48.936;9.300;2023-12-14T12:53:28;8.32;;;7.20;;
83769;SDS011;73763;48.936;9.300;2023-12-14T12:55:54;11.70;;;8.33;;
83769;SDS011;73763;48.936;9.300;2023-12-14T12:58:19;12.17;;;7.33;;
83769;SDS011;73763;48.936;9.300;2023-12-14T13:00:45;11.63;;;7.35;;
83769;SDS011;73763;48.936;9.300;2023-12-14T13:03:10;10.57;;;7.27;;
83769;SDS011;73763;48.936;9.300;2023-12-14T13:05:36;11.98;;;7.43;;
83769;SDS011;73763;48.936;9.300;2023-12-14T13:08:01;8.60;;;5.83;;
83769;SDS011;73763;48.936;9.300;2023-12-14T13:10:27;8.93;;;5.73;;
83769;SDS011;73763;48.936;9.300;2023-12-14T13:12:53;10.50;;;6.40;;
83769;SDS011;73763;48.936;9.300;2023-12-14T13:15:18;8.70;;;6.60;;
83769;SDS011;73763;48.936;9.300;2023-12-14T13:17:44;6.40;;;4.28;;
83769;SDS011;73763;48.936;9.300;2023-12-14T13:20:09;5.27;;;3.20;;
83769;SDS011;73763;48.936;9.300;2023-12-14T13:22:35;4.53;;;3.30;;
83769;SDS011;73763;48.936;9.300;2023-12-14T13:25:01;4.07;;;2.50;;
83769;SDS011;73763;48.936;9.300;2023-12-14T13:27:26;5.50;;;3.27;;
83769;SDS011;73763;48.936;9.300;2023-12-14T13:29:52;4.47;;;3.20;;
83769;SDS011;73763;48.936;9.300;2023-12-14T13:32:17;5.43;;;3.63;;
83769;SDS011;73763;48.936;9.300;2023-12-14T13:34:43;6.10;;;3.30;;
83769;SDS011;73763;48.936;9.300;2023-12-14T13:37:09;5.57;;;3.20;;
83769;SDS011;73763;48.936;9.300;2023-12-14T13:39:34;4.67;;;3.67;;
83769;SDS011;73763;48.936;9.300;2023-12-14T13:42:00;4.10;;;2.78;;
83769;SDS011;73763;48.936;9.300;2023-12-14T13:44:25;4.63;;;3.00;;
83769;SDS011;73763;48.936;9.300;2023-12-14T13:46:52;5.53;;;3.55;;
83769;SDS011;73763;48.936;9.300;2023-12-14T13:49:20;5.03;;;3.70;;
83769;SDS011;73763;48.936;9.300;2023-12-14T13:51:45;5.50;;;3.80;;
83769;SDS011;73763;48.936;9.300;2023-12-14T13:54:11;5.83;;;4.03;;
83769;SDS011;73763;48.936;9.300;2023-12-14T13:56:37;6.18;;;4.25;;
83769;SDS011;73763;48.936;9.300;2023-12-14T13:59:03;6.75;;;4.60;;
83769;SDS011;73763;48.936;9.300;2023-12-14T14:01:28;7.18;;;4.93;;
83769;SDS011;73763;48.936;9.300;2023-12-14T14:03:54;5.97;;;5.07;;
83769;SDS011;73763;48.936;9.300;2023-12-14T14:06:19;7.30;;;5.93;;
83769;SDS011;73763;48.936;9.300;2023-12-14T14:08:45;7.07;;;5.10;;
83769;SDS011;73763;48.936;9.300;2023-12-14T14:11:10;7.43;;;5.33;;
83769;SDS011;73763;48.936;9.300;2023-12-14T14:13:36;5.85;;;5.10;;
83769;SDS011;73763;48.936;9.300;2023-12-14T14:16:01;7.47;;;5.50;;
83769;SDS011;73763;48.936;9.300;2023-12-14T14:18:27;8.68;;;5.80;;
83769;SDS011;73763;48.936;9.300;2023-12-14T14:20:53;7.73;;;6.43;;
83769;SDS011;73763;48.936;9.300;2023-12-14T14:23:18;10.13;;;6.85;;
83769;SDS011;73763;48.936;9.300;2023-12-14T14:25:44;12.60;;;8.70;;
83769;SDS011;73763;48.936;9.300;2023-12-14T14:28:10;13.52;;;10.35;;